createdAt,value
2019-03-20T00:00:56.687Z,12.10
2019-03-20T00:03:24.872Z,10.23
2019-03-20T00:05:52.968Z,9.30
2019-03-20T00:08:22.538Z,8.87
2019-03-20T00:10:50.807Z,12.63
2019-03-20T00:13:18.940Z,10.97
2019-03-20T00:15:47.071Z,10.27
2019-03-20T00:18:15.171Z,5.70
2019-03-20T00:20:43.264Z,10.60
2019-03-20T00:23:11.395Z,9.93
2019-03-20T00:25:39.489Z,8.00
2019-03-20T00:28:07.905Z,6.93
2019-03-20T00:30:36.063Z,7.80
2019-03-20T00:33:04.448Z,10.93
2019-03-20T00:35:32.961Z,8.10
2019-03-20T00:38:01.275Z,12.27
2019-03-20T00:40:29.872Z,8.30
2019-03-20T00:42:58.215Z,8.23
2019-03-20T00:45:26.359Z,8.00
2019-03-20T00:47:54.886Z,11.57
2019-03-20T00:50:23.046Z,9.20
2019-03-20T00:52:51.295Z,13.40
2019-03-20T00:55:19.582Z,11.93
2019-03-20T00:57:47.899Z,14.80
2019-03-20T01:00:17.381Z,11.10
2019-03-20T01:02:45.757Z,8.50
2019-03-20T01:05:15.028Z,7.63
2019-03-20T01:07:43.591Z,11.07
2019-03-20T01:10:16.033Z,9.13
2019-03-20T01:12:44.099Z,6.27
2019-03-20T01:15:13.229Z,9.37
2019-03-20T01:17:41.409Z,7.27
2019-03-20T01:20:11.095Z,10.17
2019-03-20T01:22:39.236Z,8.17
2019-03-20T01:25:08.846Z,8.67
2019-03-20T01:27:36.989Z,6.47
2019-03-20T01:30:06.051Z,7.73
2019-03-20T01:32:34.210Z,10.97
2019-03-20T01:35:03.230Z,14.43
2019-03-20T01:37:33.297Z,8.37
2019-03-20T01:40:01.507Z,10.50
2019-03-20T01:42:29.856Z,9.97
2019-03-20T01:44:58.338Z,8.83
2019-03-20T01:47:26.496Z,7.33
2019-03-20T01:49:54.802Z,9.43
2019-03-20T01:52:22.956Z,9.07
2019-03-20T01:54:51.270Z,12.10
2019-03-20T01:57:19.898Z,12.50
2019-03-20T01:59:48.045Z,9.17
2019-03-20T02:02:16.141Z,11.93
2019-03-20T02:04:44.456Z,8.93
2019-03-20T02:07:12.696Z,9.03
2019-03-20T02:09:40.785Z,10.83
2019-03-20T02:12:08.974Z,11.83
2019-03-20T02:14:37.731Z,13.57
2019-03-20T02:17:06.334Z,13.20
2019-03-20T02:19:34.629Z,11.77
2019-03-20T02:22:02.825Z,9.57
2019-03-20T02:24:30.956Z,11.83
2019-03-20T02:26:59.386Z,14.17
2019-03-20T02:29:27.436Z,13.83
2019-03-20T02:31:55.735Z,12.63
2019-03-20T02:34:23.822Z,12.53
2019-03-20T02:36:51.956Z,11.37
2019-03-20T02:39:20.051Z,12.37
2019-03-20T02:41:48.324Z,19.30
2019-03-20T02:44:16.634Z,12.20
2019-03-20T02:46:44.890Z,15.53
2019-03-20T02:49:13.095Z,19.37
2019-03-20T02:51:41.347Z,14.43
2019-03-20T02:54:10.537Z,14.83
2019-03-20T02:56:38.756Z,16.17
2019-03-20T02:59:07.055Z,15.57
2019-03-20T03:01:35.253Z,17.37
2019-03-20T03:04:03.622Z,16.63
2019-03-20T03:06:31.821Z,16.20
2019-03-20T03:09:00.005Z,15.03
2019-03-20T03:11:28.051Z,15.23
2019-03-20T03:13:56.308Z,16.77
2019-03-20T03:16:24.377Z,18.47
2019-03-20T03:18:52.506Z,19.13
2019-03-20T03:21:20.751Z,17.70
2019-03-20T03:23:49.157Z,17.63
2019-03-20T03:26:17.227Z,19.43
2019-03-20T03:28:45.401Z,15.87
2019-03-20T03:31:13.594Z,25.30
2019-03-20T03:33:43.235Z,20.80
2019-03-20T03:36:21.066Z,19.13
2019-03-20T03:38:41.883Z,24.13
2019-03-20T03:41:09.959Z,22.87
2019-03-20T03:43:38.062Z,24.00
2019-03-20T03:46:06.261Z,23.20
2019-03-20T03:48:34.329Z,25.57
2019-03-20T03:51:02.437Z,20.17
2019-03-20T03:53:30.984Z,26.50
2019-03-20T03:55:59.196Z,23.90
2019-03-20T03:58:27.567Z,24.10
2019-03-20T04:00:55.650Z,23.63
2019-03-20T04:03:23.985Z,24.43
2019-03-20T04:05:52.091Z,25.37
2019-03-20T04:08:20.483Z,25.90
2019-03-20T04:10:48.647Z,26.33
2019-03-20T04:13:17.027Z,25.30
2019-03-20T04:15:45.263Z,30.83
2019-03-20T04:18:13.347Z,26.47
2019-03-20T04:20:41.433Z,28.57
2019-03-20T04:23:09.553Z,28.97
2019-03-20T04:25:37.707Z,29.33
2019-03-20T04:28:05.805Z,28.90
2019-03-20T04:30:34.049Z,29.43
2019-03-20T04:33:02.397Z,26.33
2019-03-20T04:35:31.413Z,26.53
2019-03-20T04:37:59.519Z,27.30
2019-03-20T04:40:27.585Z,36.77
2019-03-20T04:42:56.013Z,27.33
2019-03-20T04:45:24.149Z,30.00
2019-03-20T04:47:52.322Z,31.97
2019-03-20T04:50:20.392Z,27.73
2019-03-20T04:52:48.514Z,29.03
2019-03-20T04:55:16.604Z,31.97
2019-03-20T04:57:45.919Z,28.33
2019-03-20T05:00:15.206Z,27.40
2019-03-20T05:02:43.375Z,35.07
2019-03-20T05:05:11.441Z,31.67
2019-03-20T05:07:39.540Z,31.77
2019-03-20T05:10:10.157Z,30.37
2019-03-20T05:12:38.342Z,27.10
2019-03-20T05:15:07.447Z,28.93
2019-03-20T05:17:35.546Z,28.67
2019-03-20T05:20:04.722Z,31.50
2019-03-20T05:22:32.783Z,28.13
2019-03-20T05:25:00.987Z,35.70
2019-03-20T05:27:29.046Z,27.60
2019-03-20T05:29:57.172Z,30.17
2019-03-20T05:32:25.237Z,30.50
2019-03-20T05:34:53.474Z,31.90
2019-03-20T05:37:21.609Z,29.33
2019-03-20T05:39:49.845Z,28.83
2019-03-20T05:42:17.960Z,29.10
2019-03-20T05:44:52.359Z,40.17
2019-03-20T05:47:20.436Z,28.33
2019-03-20T05:49:48.969Z,31.40
2019-03-20T05:52:17.145Z,35.10
2019-03-20T05:54:45.195Z,32.70
2019-03-20T05:57:13.322Z,32.87
2019-03-20T05:59:41.417Z,30.33
2019-03-20T06:02:09.645Z,31.50
2019-03-20T06:04:37.697Z,36.63
2019-03-20T06:07:05.789Z,39.57
2019-03-20T06:09:33.902Z,37.37
2019-03-20T06:12:02.035Z,38.73
2019-03-20T06:14:30.198Z,36.27
2019-03-20T06:16:58.334Z,33.87
2019-03-20T06:19:26.423Z,37.83
2019-03-20T06:21:54.551Z,36.03
2019-03-20T06:24:22.949Z,39.67
2019-03-20T06:26:51.251Z,38.80
2019-03-20T06:29:20.222Z,32.70
2019-03-20T06:31:48.668Z,33.23
2019-03-20T06:34:16.752Z,37.07
2019-03-20T06:36:44.879Z,35.70
2019-03-20T06:39:13.030Z,33.33
2019-03-20T06:41:41.526Z,37.07
2019-03-20T06:44:09.615Z,38.47
2019-03-20T06:46:37.759Z,35.27
2019-03-20T06:49:07.875Z,40.80
2019-03-20T06:51:36.166Z,35.50
2019-03-20T06:54:04.255Z,36.03
2019-03-20T06:56:32.384Z,37.27
2019-03-20T07:00:10.614Z,34.93
2019-03-20T07:02:45.529Z,39.93
2019-03-20T07:06:27.126Z,38.50
2019-03-20T07:09:28.962Z,38.33
2019-03-20T07:11:57.178Z,39.03
2019-03-20T07:14:25.635Z,37.80
2019-03-20T07:16:53.861Z,40.07
2019-03-20T07:19:21.897Z,34.33
2019-03-20T07:21:50.020Z,35.17
2019-03-20T07:24:18.104Z,35.87
2019-03-20T07:26:46.251Z,29.27
2019-03-20T07:29:14.449Z,34.23
2019-03-20T07:31:42.815Z,37.07
2019-03-20T07:34:10.924Z,34.03
2019-03-20T07:36:39.034Z,39.57
2019-03-20T07:39:08.870Z,35.57
2019-03-20T07:41:37.250Z,34.23
2019-03-20T07:44:05.733Z,32.17
2019-03-20T07:46:34.401Z,36.87
2019-03-20T07:49:02.880Z,37.90
2019-03-20T07:51:31.136Z,32.53
2019-03-20T07:53:59.275Z,37.50
2019-03-20T07:56:27.799Z,37.97
2019-03-20T07:58:56.052Z,34.13
2019-03-20T08:01:24.669Z,31.27
2019-03-20T08:03:52.935Z,32.53
2019-03-20T08:06:21.139Z,36.07
2019-03-20T08:08:49.242Z,33.93
2019-03-20T08:11:17.373Z,36.10
2019-03-20T08:13:45.479Z,36.23
2019-03-20T08:16:13.612Z,34.03
2019-03-20T08:18:42.183Z,31.77
2019-03-20T08:21:10.481Z,29.47
2019-03-20T08:23:38.709Z,29.10
2019-03-20T08:26:07.070Z,34.07
2019-03-20T08:28:35.633Z,34.53
2019-03-20T08:31:04.144Z,32.17
2019-03-20T08:33:32.323Z,31.80
2019-03-20T08:36:00.483Z,33.77
2019-03-20T08:38:28.824Z,32.50
2019-03-20T08:40:57.331Z,29.27
2019-03-20T08:43:25.504Z,33.30
2019-03-20T08:45:54.130Z,36.63
2019-03-20T08:48:22.398Z,32.70
2019-03-20T08:50:50.471Z,33.40
2019-03-20T08:53:18.644Z,32.03
2019-03-20T08:55:46.933Z,31.70
2019-03-20T08:58:15.104Z,33.80
2019-03-20T09:00:43.279Z,38.80
2019-03-20T09:03:12.139Z,29.77
2019-03-20T09:05:40.733Z,28.73
2019-03-20T09:08:08.875Z,26.10
2019-03-20T09:10:37.005Z,30.33
2019-03-20T09:13:05.551Z,31.67
2019-03-20T09:15:33.661Z,35.60
2019-03-20T09:18:01.802Z,29.20
2019-03-20T09:20:29.881Z,36.70
2019-03-20T09:22:58.017Z,32.37
2019-03-20T09:25:26.090Z,31.87
2019-03-20T09:27:54.203Z,34.83
2019-03-20T09:30:22.550Z,31.53
2019-03-20T09:32:50.650Z,30.93
2019-03-20T09:35:18.754Z,30.70
2019-03-20T09:37:51.881Z,32.17
2019-03-20T09:40:17.230Z,29.23
2019-03-20T09:42:45.496Z,32.70
2019-03-20T09:45:14.749Z,26.97
2019-03-20T09:47:43.348Z,31.00
2019-03-20T09:50:14.068Z,26.20
2019-03-20T09:52:42.734Z,29.20
2019-03-20T09:55:11.071Z,27.10
2019-03-20T09:57:39.258Z,28.37
2019-03-20T10:00:15.768Z,25.93
2019-03-20T10:02:43.919Z,28.53
2019-03-20T10:05:12.097Z,34.00
2019-03-20T10:07:40.204Z,28.27
2019-03-20T10:10:09.249Z,25.33
2019-03-20T10:12:37.358Z,31.93
2019-03-20T10:15:08.113Z,26.80
2019-03-20T10:17:36.332Z,30.87
2019-03-20T10:20:05.851Z,32.13
2019-03-20T10:22:35.733Z,30.30
2019-03-20T10:25:04.886Z,29.47
2019-03-20T10:27:33.264Z,28.03
2019-03-20T10:30:01.497Z,28.03
2019-03-20T10:32:29.618Z,29.37
2019-03-20T10:34:57.769Z,24.23
2019-03-20T10:37:26.190Z,26.60
2019-03-20T10:39:54.282Z,28.57
2019-03-20T10:42:22.517Z,24.27
2019-03-20T10:44:50.612Z,25.57
2019-03-20T10:47:18.759Z,25.40
2019-03-20T10:49:46.858Z,22.97
2019-03-20T10:52:14.976Z,29.47
2019-03-20T10:54:43.114Z,28.17
2019-03-20T10:57:11.242Z,28.17
2019-03-20T10:59:41.467Z,28.07
2019-03-20T11:02:09.597Z,24.87
2019-03-20T11:04:37.894Z,25.77
2019-03-20T11:07:06.424Z,24.43
2019-03-20T11:09:34.610Z,28.70
2019-03-20T11:12:02.709Z,26.73
2019-03-20T11:14:30.945Z,25.93
2019-03-20T11:16:59.139Z,30.20
2019-03-20T11:19:27.337Z,27.43
2019-03-20T11:21:55.424Z,30.47
2019-03-20T11:24:23.692Z,29.03
2019-03-20T11:26:51.742Z,29.10
2019-03-20T11:29:21.779Z,30.17
2019-03-20T11:31:49.994Z,31.33
2019-03-20T11:34:18.057Z,34.17
2019-03-20T11:36:46.187Z,34.17
2019-03-20T11:39:14.369Z,37.00
2019-03-20T11:41:42.592Z,32.77
2019-03-20T11:44:10.780Z,35.60
2019-03-20T11:46:38.910Z,32.30
2019-03-20T11:49:07.137Z,31.83
2019-03-20T11:51:35.244Z,32.80
2019-03-20T11:54:03.504Z,32.10
2019-03-20T11:56:31.785Z,36.10
2019-03-20T11:58:59.877Z,33.83
2019-03-20T12:01:28.680Z,31.90
2019-03-20T12:03:56.719Z,30.40
2019-03-20T12:06:24.903Z,31.30
2019-03-20T12:08:53.055Z,32.00
2019-03-20T12:11:21.621Z,30.27
2019-03-20T12:13:50.029Z,31.80
2019-03-20T12:16:18.434Z,34.87
2019-03-20T12:18:46.653Z,42.70
2019-03-20T12:21:15.080Z,36.63
2019-03-20T12:23:43.613Z,40.67
2019-03-20T12:26:11.913Z,38.77
2019-03-20T12:28:40.113Z,39.53
2019-03-20T12:31:08.582Z,33.33
2019-03-20T12:33:37.064Z,38.07
2019-03-20T12:36:05.267Z,34.87
2019-03-20T12:38:34.120Z,35.23
2019-03-20T12:41:02.238Z,34.70
2019-03-20T12:43:30.457Z,29.30
2019-03-20T12:45:58.931Z,37.73
2019-03-20T12:48:27.433Z,34.47
2019-03-20T12:50:55.544Z,33.33
2019-03-20T12:53:27.907Z,38.37
2019-03-20T12:55:56.470Z,30.63
2019-03-20T12:58:24.573Z,35.40
2019-03-20T13:00:54.488Z,31.03
2019-03-20T13:03:22.779Z,36.80
2019-03-20T13:05:50.949Z,38.60
2019-03-20T13:08:19.155Z,32.77
2019-03-20T13:10:47.282Z,30.43
2019-03-20T13:13:15.478Z,35.40
2019-03-20T13:15:43.672Z,38.53
2019-03-20T13:18:11.816Z,36.37
2019-03-20T13:20:40.503Z,34.43
2019-03-20T13:23:11.318Z,36.03
2019-03-20T13:25:39.555Z,33.10
2019-03-20T13:28:07.749Z,37.37
2019-03-20T13:30:43.266Z,36.87
2019-03-20T13:33:11.436Z,32.80
2019-03-20T13:35:39.511Z,31.73
2019-03-20T13:38:07.585Z,29.87
2019-03-20T13:40:35.778Z,32.20
2019-03-20T13:43:04.016Z,27.30
2019-03-20T13:45:32.206Z,33.07
2019-03-20T13:48:00.303Z,33.00
2019-03-20T13:50:28.535Z,31.23
2019-03-20T13:52:56.706Z,32.23
2019-03-20T13:55:25.010Z,33.23
2019-03-20T13:57:53.179Z,31.13
2019-03-20T14:00:21.637Z,32.97
2019-03-20T14:02:49.744Z,35.33
2019-03-20T14:05:17.955Z,30.97
2019-03-20T14:07:46.166Z,30.90
2019-03-20T14:10:24.612Z,31.73
2019-03-20T14:12:47.213Z,31.37
2019-03-20T14:15:15.769Z,35.60
2019-03-20T14:17:43.989Z,32.20
2019-03-20T14:20:15.212Z,34.80
2019-03-20T14:22:43.519Z,32.13
2019-03-20T14:25:11.772Z,33.47
2019-03-20T14:27:39.869Z,32.37
2019-03-20T14:30:15.983Z,32.37
2019-03-20T14:32:44.319Z,34.63
2019-03-20T14:35:12.441Z,33.50
2019-03-20T14:37:40.503Z,30.67
2019-03-20T14:40:09.705Z,31.87
2019-03-20T14:42:37.767Z,32.63
2019-03-20T14:45:12.478Z,34.23
2019-03-20T14:47:42.315Z,33.60
2019-03-20T14:50:14.403Z,33.13
2019-03-20T14:52:42.598Z,35.70
2019-03-20T14:55:10.944Z,34.97
2019-03-20T14:57:39.540Z,33.87
2019-03-20T15:00:20.479Z,36.33
2019-03-20T15:02:48.615Z,32.57
2019-03-20T15:05:16.832Z,32.17
2019-03-20T15:07:44.962Z,33.33
2019-03-20T15:10:15.834Z,34.47
2019-03-20T15:12:43.939Z,38.27
2019-03-20T15:15:17.715Z,34.43
2019-03-20T15:17:45.841Z,36.10
2019-03-20T15:20:14.306Z,39.03
2019-03-20T15:22:42.444Z,35.23
2019-03-20T15:25:10.591Z,33.13
2019-03-20T15:27:38.655Z,33.67
2019-03-20T15:30:10.809Z,36.90
2019-03-20T15:32:38.864Z,38.40
2019-03-20T15:35:08.058Z,34.57
2019-03-20T15:37:36.147Z,41.43
2019-03-20T15:40:05.870Z,40.03
2019-03-20T15:42:34.122Z,35.13
2019-03-20T15:45:02.271Z,40.20
2019-03-20T15:47:30.408Z,37.80
2019-03-20T15:49:58.837Z,34.37
2019-03-20T15:52:26.932Z,37.07
2019-03-20T15:54:55.107Z,40.23
2019-03-20T15:57:23.297Z,37.30
2019-03-20T15:59:52.130Z,40.00
2019-03-20T16:02:20.408Z,39.60
2019-03-20T16:04:48.514Z,40.50
2019-03-20T16:07:16.671Z,41.90
2019-03-20T16:09:44.773Z,45.43
2019-03-20T16:12:13.004Z,44.27
2019-03-20T16:14:42.177Z,45.40
2019-03-20T16:17:10.318Z,48.83
2019-03-20T16:19:38.485Z,37.33
2019-03-20T16:22:06.557Z,41.97
2019-03-20T16:24:34.632Z,35.37
2019-03-20T16:27:03.043Z,37.60
2019-03-20T16:29:31.131Z,36.27
2019-03-20T16:31:59.368Z,35.73
2019-03-20T16:34:27.475Z,37.73
2019-03-20T16:36:55.557Z,36.70
2019-03-20T16:39:23.662Z,36.53
2019-03-20T16:41:51.757Z,34.43
2019-03-20T16:44:19.953Z,41.07
2019-03-20T16:46:48.336Z,38.70
2019-03-20T16:49:16.492Z,37.87
2019-03-20T16:51:44.690Z,41.50
2019-03-20T16:54:12.795Z,39.63
2019-03-20T16:56:40.954Z,38.83
2019-03-20T16:59:09.089Z,38.67
2019-03-20T17:01:37.164Z,41.40
2019-03-20T17:04:05.287Z,38.83
2019-03-20T17:06:33.389Z,44.63
2019-03-20T17:09:01.544Z,39.03
2019-03-20T17:11:38.141Z,41.30
2019-03-20T17:14:00.362Z,42.27
2019-03-20T17:16:28.514Z,36.17
2019-03-20T17:18:56.581Z,45.03
2019-03-20T17:21:24.750Z,40.77
2019-03-20T17:23:53.166Z,40.03
2019-03-20T17:26:21.381Z,43.57
2019-03-20T17:28:49.447Z,40.47
2019-03-20T17:31:17.677Z,43.13
2019-03-20T17:33:45.928Z,40.60
2019-03-20T17:36:14.042Z,43.97
2019-03-20T17:38:42.451Z,35.87
2019-03-20T17:41:10.596Z,37.60
2019-03-20T17:43:38.662Z,43.47
2019-03-20T17:46:06.858Z,41.63
2019-03-20T17:48:35.238Z,41.70
2019-03-20T17:51:03.428Z,47.97
2019-03-20T17:53:32.597Z,42.30
2019-03-20T17:56:00.924Z,44.70
2019-03-20T17:58:29.186Z,45.90
2019-03-20T18:00:57.370Z,46.83
2019-03-20T18:03:25.499Z,43.70
2019-03-20T18:05:53.929Z,47.73
2019-03-20T18:08:21.975Z,45.70
2019-03-20T18:10:50.104Z,51.07
2019-03-20T18:13:18.199Z,49.47
2019-03-20T18:15:46.309Z,50.27
2019-03-20T18:18:14.398Z,50.67
2019-03-20T18:20:43.112Z,49.30
2019-03-20T18:23:11.237Z,46.23
2019-03-20T18:25:39.348Z,44.20
2019-03-20T18:28:07.662Z,53.70
2019-03-20T18:30:36.490Z,47.60
2019-03-20T18:33:04.785Z,49.20
2019-03-20T18:35:32.963Z,49.60
2019-03-20T18:38:01.597Z,56.40
2019-03-20T18:40:29.682Z,52.53
2019-03-20T18:42:57.827Z,63.30
2019-03-20T18:45:26.325Z,53.43
2019-03-20T18:47:54.698Z,56.13
2019-03-20T18:50:24.073Z,63.60
2019-03-20T18:52:52.387Z,62.13
2019-03-20T18:55:20.613Z,54.27
2019-03-20T18:57:48.951Z,60.90
2019-03-20T19:00:20.224Z,55.47
2019-03-20T19:02:48.608Z,59.87
2019-03-20T19:05:48.123Z,59.60
2019-03-20T19:08:16.467Z,59.80
2019-03-20T19:10:44.809Z,59.83
2019-03-20T19:13:13.424Z,70.33
2019-03-20T19:15:41.536Z,62.53
2019-03-20T19:18:09.646Z,67.33
2019-03-20T19:20:37.985Z,67.57
2019-03-20T19:23:06.149Z,69.50
2019-03-20T19:25:34.238Z,68.77
2019-03-20T19:28:02.367Z,72.00
2019-03-20T19:30:30.454Z,79.97
2019-03-20T19:32:58.517Z,77.33
2019-03-20T19:35:26.743Z,73.87
2019-03-20T19:37:54.812Z,72.47
2019-03-20T19:40:22.876Z,72.80
2019-03-20T19:42:51.057Z,71.90
2019-03-20T19:45:19.293Z,79.83
2019-03-20T19:47:47.422Z,77.03
2019-03-20T19:50:15.583Z,72.13
2019-03-20T19:52:44.136Z,85.20
2019-03-20T19:55:12.362Z,74.90
2019-03-20T19:57:40.720Z,76.70
2019-03-20T20:00:12.602Z,82.90
2019-03-20T20:02:40.799Z,78.53
2019-03-20T20:05:15.618Z,79.53
2019-03-20T20:07:40.375Z,90.43
2019-03-20T20:10:09.070Z,80.40
2019-03-20T20:12:37.251Z,76.30
2019-03-20T20:15:16.757Z,86.60
2019-03-20T20:17:46.888Z,86.30
2019-03-20T20:20:17.038Z,87.23
2019-03-20T20:22:45.205Z,82.13
2019-03-20T20:25:13.329Z,90.47
2019-03-20T20:27:41.420Z,81.80
2019-03-20T20:30:13.008Z,80.73
2019-03-20T20:32:41.156Z,85.37
2019-03-20T20:35:09.484Z,87.20
2019-03-20T20:37:37.600Z,78.87
2019-03-20T20:40:07.121Z,83.67
2019-03-20T20:42:42.927Z,84.70
2019-03-20T20:45:13.543Z,78.43
2019-03-20T20:47:41.871Z,80.77
2019-03-20T20:50:10.538Z,80.43
2019-03-20T20:52:38.767Z,86.10
2019-03-20T20:55:08.529Z,86.30
2019-03-20T20:57:37.399Z,76.67
2019-03-20T21:00:11.048Z,85.57
2019-03-20T21:02:39.508Z,82.93
2019-03-20T21:05:07.805Z,79.57
2019-03-20T21:07:36.232Z,84.53
2019-03-20T21:10:05.145Z,80.30
2019-03-20T21:12:33.330Z,80.10
2019-03-20T21:15:01.429Z,82.50
2019-03-20T21:17:55.296Z,78.97
2019-03-20T21:20:24.218Z,81.83
2019-03-20T21:24:02.813Z,81.53
2019-03-20T21:26:32.907Z,74.97
2019-03-20T21:29:54.298Z,73.37
2019-03-20T21:32:36.745Z,75.00
2019-03-20T21:36:12.798Z,83.23
2019-03-20T21:38:41.905Z,76.27
2019-03-20T21:42:12.201Z,77.73
2019-03-20T21:45:39.429Z,79.33
2019-03-20T21:48:09.374Z,70.00
2019-03-20T21:51:15.699Z,82.83
2019-03-20T21:54:54.479Z,74.77
2019-03-20T21:58:09.512Z,78.93
2019-03-20T22:01:33.743Z,73.13
2019-03-20T22:04:02.667Z,77.63
2019-03-20T22:07:22.027Z,73.63
2019-03-20T22:10:51.792Z,75.57
2019-03-20T22:13:41.616Z,68.03
2019-03-20T22:17:09.534Z,70.03
2019-03-20T22:20:34.985Z,74.93
2019-03-20T22:24:08.204Z,74.00
2019-03-20T22:27:24.887Z,78.50
2019-03-20T22:29:54.032Z,77.97
2019-03-20T22:33:22.030Z,70.13
2019-03-20T22:36:18.466Z,73.33
2019-03-20T22:40:05.041Z,72.87
2019-03-20T22:42:49.926Z,73.73
2019-03-20T22:46:26.419Z,65.60
2019-03-20T22:49:51.643Z,76.80
2019-03-20T22:53:02.832Z,70.47
2019-03-20T22:56:38.996Z,73.13
2019-03-20T22:59:07.914Z,71.10
2019-03-20T23:02:32.612Z,71.93
2019-03-20T23:05:01.524Z,66.37
2019-03-20T23:07:30.840Z,73.00
2019-03-20T23:09:59.941Z,63.33
2019-03-20T23:12:28.973Z,66.60
2019-03-20T23:14:58.211Z,68.73
2019-03-20T23:17:27.988Z,72.13
2019-03-20T23:19:59.020Z,69.50
2019-03-20T23:22:29.103Z,65.60
2019-03-20T23:24:58.039Z,64.63
2019-03-20T23:27:30.089Z,68.73
2019-03-20T23:29:59.790Z,69.27
2019-03-20T23:32:29.304Z,63.03
2019-03-20T23:34:58.236Z,75.77
2019-03-20T23:37:27.128Z,69.73
2019-03-20T23:39:56.059Z,70.67
2019-03-20T23:42:25.833Z,63.67
2019-03-20T23:44:54.860Z,66.43
2019-03-20T23:48:19.884Z,65.47
2019-03-20T23:50:52.427Z,68.03
2019-03-20T23:53:21.355Z,66.60
2019-03-20T23:55:50.263Z,66.23
2019-03-20T23:58:19.227Z,67.87
